createdAt,value
2022-12-22T00:01:18.264Z,2.10
2022-12-22T00:04:03.879Z,2.10
2022-12-22T00:06:50.499Z,2.10
2022-12-22T00:09:36.097Z,2.10
2022-12-22T00:12:21.547Z,2.10
2022-12-22T00:15:08.107Z,2.10
2022-12-22T00:17:53.636Z,2.00
2022-12-22T00:20:40.108Z,2.00
2022-12-22T00:23:28.322Z,2.10
2022-12-22T00:26:14.546Z,2.10
2022-12-22T00:29:00.446Z,2.10
2022-12-22T00:31:46.533Z,2.10
2022-12-22T00:34:34.531Z,2.20
2022-12-22T00:37:19.980Z,2.20
2022-12-22T00:40:08.031Z,2.20
2022-12-22T00:42:53.215Z,2.20
2022-12-22T00:45:39.806Z,2.20
2022-12-22T00:48:35.358Z,2.30
2022-12-22T00:51:20.989Z,2.30
2022-12-22T00:54:06.648Z,2.30
2022-12-22T00:56:53.419Z,2.30
2022-12-22T00:59:38.835Z,2.30
2022-12-22T01:02:24.492Z,2.40
2022-12-22T01:05:09.850Z,2.40
2022-12-22T01:07:55.472Z,2.40
2022-12-22T01:10:43.067Z,2.40
2022-12-22T01:13:31.003Z,2.40
2022-12-22T01:16:16.740Z,2.40
2022-12-22T01:19:02.267Z,2.40
2022-12-22T01:21:48.113Z,2.40
2022-12-22T01:24:35.845Z,2.40
2022-12-22T01:27:22.200Z,2.40
2022-12-22T01:30:09.181Z,2.50
2022-12-22T01:32:54.888Z,2.50
2022-12-22T01:35:42.116Z,2.50
2022-12-22T01:38:27.821Z,2.60
2022-12-22T01:41:14.871Z,2.60
2022-12-22T01:44:00.397Z,2.60
2022-12-22T01:46:49.600Z,2.70
2022-12-22T01:49:38.814Z,2.70
2022-12-22T01:52:25.263Z,2.70
2022-12-22T01:55:11.456Z,2.80
2022-12-22T01:57:57.000Z,2.80
2022-12-22T02:00:42.506Z,2.80
2022-12-22T02:03:36.863Z,2.90
2022-12-22T02:06:32.434Z,2.90
2022-12-22T02:09:32.702Z,2.90
2022-12-22T02:12:27.287Z,3.00
2022-12-22T02:15:21.236Z,3.00
2022-12-22T02:18:16.043Z,3.20
2022-12-22T02:21:07.854Z,3.20
2022-12-22T02:24:17.591Z,3.20
2022-12-22T02:27:08.143Z,3.20
2022-12-22T02:29:57.513Z,3.20
2022-12-22T02:32:43.563Z,3.30
2022-12-22T02:35:30.688Z,3.30
2022-12-22T02:38:25.831Z,3.30
2022-12-22T02:41:24.900Z,3.40
2022-12-22T02:44:28.844Z,3.40
2022-12-22T02:47:21.528Z,3.40
2022-12-22T02:50:12.823Z,3.40
2022-12-22T02:53:00.762Z,3.50
2022-12-22T02:55:47.517Z,3.60
2022-12-22T02:58:33.408Z,3.70
2022-12-22T03:01:22.319Z,3.80
2022-12-22T03:04:08.010Z,3.90
2022-12-22T03:06:53.823Z,4.00
2022-12-22T03:09:40.009Z,4.00
2022-12-22T03:12:26.298Z,4.10
2022-12-22T03:15:12.005Z,4.10
2022-12-22T03:17:59.588Z,4.10
2022-12-22T03:20:45.433Z,4.10
2022-12-22T03:23:31.802Z,4.10
2022-12-22T03:26:00.444Z,4.20
2022-12-22T03:28:30.317Z,4.20
2022-12-22T03:31:02.858Z,4.30
2022-12-22T03:33:34.072Z,4.30
2022-12-22T03:36:03.171Z,4.30
2022-12-22T03:38:31.856Z,4.30
2022-12-22T03:41:00.198Z,4.30
2022-12-22T03:43:45.664Z,4.30
2022-12-22T03:46:33.932Z,4.20
2022-12-22T03:49:11.213Z,4.20
2022-12-22T03:51:41.604Z,4.20
2022-12-22T03:54:10.578Z,4.30
2022-12-22T03:56:39.065Z,4.20
2022-12-22T03:59:07.526Z,4.20
2022-12-22T04:01:38.366Z,4.20
2022-12-22T04:04:07.909Z,4.20
2022-12-22T04:06:35.781Z,4.20
2022-12-22T04:09:04.032Z,4.20
2022-12-22T04:11:49.424Z,4.20
2022-12-22T04:14:17.815Z,4.20
2022-12-22T04:16:45.999Z,4.20
2022-12-22T04:19:16.081Z,4.20
2022-12-22T04:21:44.384Z,4.20
2022-12-22T04:24:12.674Z,4.30
2022-12-22T04:26:40.982Z,4.30
2022-12-22T04:29:09.058Z,4.30
2022-12-22T04:31:37.421Z,4.30
2022-12-22T04:34:05.341Z,4.40
2022-12-22T04:36:34.625Z,4.30
2022-12-22T04:39:02.543Z,4.40
2022-12-22T04:41:30.605Z,4.40
2022-12-22T04:43:58.646Z,4.50
2022-12-22T04:46:26.531Z,4.50
2022-12-22T04:48:59.542Z,4.50
2022-12-22T04:51:28.543Z,4.50
2022-12-22T04:53:57.856Z,4.50
2022-12-22T04:56:28.348Z,4.50
2022-12-22T04:58:56.359Z,4.50
2022-12-22T05:01:24.431Z,4.60
2022-12-22T05:04:01.238Z,4.60
2022-12-22T05:06:32.070Z,4.60
2022-12-22T05:09:02.031Z,4.50
2022-12-22T05:11:32.357Z,4.50
2022-12-22T05:14:06.997Z,4.50
2022-12-22T05:16:35.692Z,4.60
2022-12-22T05:19:03.809Z,4.60
2022-12-22T05:21:31.800Z,4.60
2022-12-22T05:24:01.468Z,4.70
2022-12-22T05:26:29.726Z,4.70
2022-12-22T05:28:57.797Z,4.70
2022-12-22T05:31:27.068Z,4.80
2022-12-22T05:33:55.284Z,4.80
2022-12-22T05:36:23.284Z,4.80
2022-12-22T05:38:51.250Z,4.80
2022-12-22T05:41:20.634Z,4.80
2022-12-22T05:43:48.650Z,4.70
2022-12-22T05:46:16.674Z,4.70
2022-12-22T05:48:44.833Z,4.80
2022-12-22T05:51:20.479Z,4.80
2022-12-22T05:53:48.661Z,4.80
2022-12-22T05:56:16.676Z,4.80
2022-12-22T05:58:46.108Z,4.70
2022-12-22T06:01:14.298Z,4.70
2022-12-22T06:03:43.251Z,4.70
2022-12-22T06:06:11.208Z,4.70
2022-12-22T06:08:39.214Z,4.70
2022-12-22T06:11:07.248Z,4.80
2022-12-22T06:13:35.554Z,4.70
2022-12-22T06:16:05.513Z,4.70
2022-12-22T06:18:33.610Z,4.60
2022-12-22T06:21:01.753Z,4.70
2022-12-22T06:23:29.789Z,4.70
2022-12-22T06:25:58.884Z,4.80
2022-12-22T06:28:27.497Z,4.80
2022-12-22T06:30:56.373Z,4.90
2022-12-22T06:33:26.057Z,5.00
2022-12-22T06:35:58.857Z,5.00
2022-12-22T06:38:28.559Z,5.00
2022-12-22T06:40:56.831Z,5.00
2022-12-22T06:43:23.951Z,5.00
2022-12-22T06:45:52.031Z,5.00
2022-12-22T06:48:20.068Z,5.00
2022-12-22T06:50:49.580Z,5.00
2022-12-22T06:53:17.647Z,5.00
2022-12-22T06:55:46.377Z,5.00
2022-12-22T06:58:14.390Z,5.00
2022-12-22T07:00:43.243Z,5.00
2022-12-22T07:03:11.449Z,5.00
2022-12-22T07:05:39.492Z,4.90
2022-12-22T07:08:09.517Z,4.90
2022-12-22T07:10:55.123Z,4.90
2022-12-22T07:13:24.400Z,4.80
2022-12-22T07:16:01.088Z,4.60
2022-12-22T07:18:30.735Z,4.90
2022-12-22T07:21:03.588Z,4.80
2022-12-22T07:23:38.373Z,4.80
2022-12-22T07:26:10.597Z,4.80
2022-12-22T07:28:42.373Z,4.80
2022-12-22T07:31:15.680Z,4.80
2022-12-22T07:33:44.289Z,4.80
2022-12-22T07:36:17.219Z,4.80
2022-12-22T07:38:49.556Z,4.80
2022-12-22T07:41:37.260Z,4.80
2022-12-22T07:44:09.287Z,4.80
2022-12-22T07:46:39.800Z,4.80
2022-12-22T07:49:34.897Z,4.80
2022-12-22T07:52:07.381Z,4.90
2022-12-22T07:54:41.730Z,5.00
2022-12-22T07:57:10.536Z,5.00
2022-12-22T07:59:38.632Z,5.10
2022-12-22T08:02:07.084Z,5.20
2022-12-22T08:04:35.330Z,5.30
2022-12-22T08:07:03.595Z,5.40
2022-12-22T08:09:31.873Z,5.40
2022-12-22T08:12:01.572Z,5.40
2022-12-22T08:14:29.775Z,5.50
2022-12-22T08:16:59.248Z,5.50
2022-12-22T08:19:28.001Z,5.70
2022-12-22T08:21:56.045Z,5.90
2022-12-22T08:24:24.088Z,6.00
2022-12-22T08:26:56.254Z,6.20
2022-12-22T08:29:29.954Z,6.20
2022-12-22T08:31:58.042Z,6.40
2022-12-22T08:34:26.168Z,6.40
2022-12-22T08:37:03.963Z,6.50
2022-12-22T08:39:34.220Z,6.50
2022-12-22T08:42:04.807Z,6.50
2022-12-22T08:44:34.378Z,6.50
2022-12-22T08:47:02.428Z,6.60
2022-12-22T08:49:30.503Z,6.60
2022-12-22T08:51:58.944Z,6.60
2022-12-22T08:54:27.006Z,6.60
2022-12-22T08:56:54.973Z,6.90
2022-12-22T08:59:23.021Z,6.80
2022-12-22T09:01:52.531Z,6.40
2022-12-22T09:04:22.380Z,6.60
2022-12-22T09:06:52.877Z,6.60
2022-12-22T09:09:21.688Z,6.70
2022-12-22T09:11:49.769Z,6.70
2022-12-22T09:14:18.905Z,6.70
2022-12-22T09:16:46.910Z,6.60
2022-12-22T09:19:16.486Z,6.60
2022-12-22T09:21:45.109Z,6.70
2022-12-22T09:24:14.539Z,6.60
2022-12-22T09:26:43.061Z,6.60
2022-12-22T09:29:11.065Z,6.60
2022-12-22T09:31:41.684Z,6.70
2022-12-22T09:34:16.846Z,6.70
2022-12-22T09:36:48.108Z,6.30
2022-12-22T09:39:22.185Z,6.70
2022-12-22T09:41:54.990Z,6.70
2022-12-22T09:44:26.359Z,6.70
2022-12-22T09:46:56.756Z,6.80
2022-12-22T09:49:25.285Z,6.90
2022-12-22T09:51:59.168Z,6.90
2022-12-22T09:54:28.311Z,6.90
2022-12-22T09:56:57.118Z,7.00
2022-12-22T09:59:28.762Z,6.90
2022-12-22T10:02:16.771Z,7.00
2022-12-22T10:05:00.843Z,7.00
2022-12-22T10:07:34.569Z,7.00
2022-12-22T10:10:07.590Z,7.10
2022-12-22T10:12:35.627Z,7.10
2022-12-22T10:15:03.599Z,7.10
2022-12-22T10:17:33.692Z,7.20
2022-12-22T10:20:20.865Z,7.20
2022-12-22T10:22:52.363Z,7.20
2022-12-22T10:26:26.906Z,7.30
2022-12-22T10:28:44.933Z,7.30
2022-12-22T10:31:17.759Z,7.50
2022-12-22T10:33:49.571Z,7.30
2022-12-22T10:36:24.598Z,7.40
2022-12-22T10:39:12.095Z,7.50
2022-12-22T10:41:44.740Z,7.40
2022-12-22T10:44:21.775Z,7.50
2022-12-22T10:46:51.657Z,7.50
2022-12-22T10:49:21.691Z,7.60
2022-12-22T10:51:53.247Z,7.60
2022-12-22T10:54:36.445Z,7.60
2022-12-22T10:57:07.967Z,7.60
2022-12-22T10:59:50.015Z,7.70
2022-12-22T11:02:38.376Z,7.70
2022-12-22T11:05:11.645Z,7.80
2022-12-22T11:07:41.307Z,7.80
2022-12-22T11:10:19.091Z,7.90
2022-12-22T11:13:22.585Z,7.90
2022-12-22T11:15:58.749Z,7.90
2022-12-22T11:18:58.542Z,7.90
2022-12-22T11:21:33.657Z,8.00
2022-12-22T11:24:11.544Z,8.00
2022-12-22T11:26:52.110Z,8.10
2022-12-22T11:29:39.290Z,8.10
2022-12-22T11:32:22.217Z,8.20
2022-12-22T11:35:00.001Z,8.20
2022-12-22T11:37:34.285Z,8.20
2022-12-22T11:40:13.094Z,8.30
2022-12-22T11:42:55.054Z,8.30
2022-12-22T11:45:46.183Z,8.40
2022-12-22T11:48:43.693Z,8.40
2022-12-22T11:51:23.821Z,8.40
2022-12-22T11:54:23.522Z,8.40
2022-12-22T11:56:57.998Z,8.40
2022-12-22T11:59:43.616Z,8.50
2022-12-22T12:02:42.043Z,8.50
2022-12-22T12:05:29.809Z,8.50
2022-12-22T12:08:06.291Z,8.60
2022-12-22T12:10:43.302Z,8.60
2022-12-22T12:13:28.744Z,8.60
2022-12-22T12:16:12.198Z,8.70
2022-12-22T12:18:55.255Z,8.70
2022-12-22T12:21:28.563Z,8.80
2022-12-22T12:24:08.808Z,8.90
2022-12-22T12:26:45.631Z,9.00
2022-12-22T12:29:18.655Z,9.10
2022-12-22T12:31:54.810Z,9.20
2022-12-22T12:34:23.887Z,9.40
2022-12-22T12:36:59.654Z,9.50
2022-12-22T12:39:34.807Z,9.50
2022-12-22T12:42:17.670Z,9.60
2022-12-22T12:44:47.109Z,9.60
2022-12-22T12:47:28.262Z,9.50
2022-12-22T12:50:34.908Z,9.50
2022-12-22T12:53:08.703Z,9.40
2022-12-22T12:55:57.236Z,9.40
2022-12-22T12:58:59.145Z,9.40
2022-12-22T13:01:58.802Z,9.40
2022-12-22T13:05:12.559Z,9.40
2022-12-22T13:08:14.278Z,9.40
2022-12-22T13:10:45.867Z,9.50
2022-12-22T13:13:40.639Z,9.40
2022-12-22T13:16:28.479Z,9.40
2022-12-22T13:18:58.725Z,9.40
2022-12-22T13:24:25.838Z,9.40
2022-12-22T13:26:56.839Z,9.30
2022-12-22T13:29:29.698Z,9.20
2022-12-22T13:32:01.365Z,9.20
2022-12-22T13:35:04.494Z,9.10
2022-12-22T13:37:31.810Z,9.10
2022-12-22T13:40:13.908Z,9.00
2022-12-22T13:42:44.078Z,9.00
2022-12-22T13:45:27.207Z,8.90
2022-12-22T13:47:55.664Z,8.90
2022-12-22T13:50:27.390Z,8.90
2022-12-22T13:52:58.264Z,8.80
2022-12-22T13:55:29.116Z,8.80
2022-12-22T13:58:02.070Z,8.80
2022-12-22T14:00:30.869Z,8.80
2022-12-22T14:02:59.177Z,8.80
2022-12-22T14:05:33.090Z,8.80
2022-12-22T14:08:07.511Z,8.80
2022-12-22T14:10:38.554Z,8.90
2022-12-22T14:13:13.343Z,8.90
2022-12-22T14:15:55.978Z,8.80
2022-12-22T14:18:29.126Z,8.90
2022-12-22T14:20:59.130Z,9.00
2022-12-22T14:23:31.993Z,8.90
2022-12-22T14:26:01.973Z,9.00
2022-12-22T14:28:34.545Z,8.90
2022-12-22T14:31:13.388Z,9.00
2022-12-22T14:33:52.884Z,9.00
2022-12-22T14:36:23.990Z,9.00
2022-12-22T14:38:55.196Z,9.00
2022-12-22T14:41:46.831Z,9.00
2022-12-22T14:44:17.255Z,9.00
2022-12-22T14:46:46.450Z,8.90
2022-12-22T14:49:18.200Z,8.90
2022-12-22T14:52:00.823Z,8.80
2022-12-22T14:54:30.864Z,8.80
2022-12-22T14:57:10.070Z,8.80
2022-12-22T14:59:43.194Z,8.70
2022-12-22T15:02:23.148Z,8.70
2022-12-22T15:05:08.276Z,8.70
2022-12-22T15:10:40.709Z,8.70
2022-12-22T15:13:14.579Z,8.70
2022-12-22T15:15:44.051Z,8.70
2022-12-22T15:18:15.380Z,8.50
2022-12-22T15:20:43.624Z,8.50
2022-12-22T15:23:16.756Z,8.50
2022-12-22T15:25:46.387Z,8.50
2022-12-22T15:28:14.540Z,8.40
2022-12-22T15:30:43.176Z,8.40
2022-12-22T15:33:14.168Z,8.30
2022-12-22T15:35:42.826Z,8.30
2022-12-22T15:38:14.920Z,8.30
2022-12-22T15:40:43.024Z,8.30
2022-12-22T15:43:22.731Z,8.40
2022-12-22T15:46:01.261Z,8.30
2022-12-22T15:48:33.037Z,8.40
2022-12-22T15:51:02.735Z,8.30
2022-12-22T15:53:31.504Z,8.30
2022-12-22T15:55:59.644Z,8.30
2022-12-22T15:58:33.538Z,8.20
2022-12-22T16:01:01.648Z,8.30
2022-12-22T16:03:29.930Z,8.30
2022-12-22T16:05:58.158Z,8.30
2022-12-22T16:08:29.860Z,8.30
2022-12-22T16:10:58.385Z,8.30
2022-12-22T16:13:29.401Z,8.30
2022-12-22T16:15:58.173Z,8.20
2022-12-22T16:18:26.644Z,8.20
2022-12-22T16:20:55.284Z,8.10
2022-12-22T16:23:25.745Z,8.10
2022-12-22T16:26:00.912Z,8.00
2022-12-22T16:28:33.357Z,8.00
2022-12-22T16:31:02.307Z,7.90
2022-12-22T16:33:30.329Z,7.80
2022-12-22T16:35:58.308Z,7.60
2022-12-22T16:38:26.273Z,7.50
2022-12-22T16:40:54.764Z,7.40
2022-12-22T16:46:18.248Z,7.20
2022-12-22T16:48:49.720Z,7.10
2022-12-22T16:51:22.369Z,7.00
2022-12-22T16:53:50.513Z,6.90
2022-12-22T16:56:21.671Z,6.80
2022-12-22T16:58:50.528Z,6.80
2022-12-22T17:01:33.137Z,6.80
2022-12-22T17:04:05.292Z,6.80
2022-12-22T17:06:33.705Z,6.80
2022-12-22T17:09:03.453Z,6.70
2022-12-22T17:11:32.762Z,6.50
2022-12-22T17:14:06.928Z,6.50
2022-12-22T17:16:36.473Z,6.40
2022-12-22T17:19:04.699Z,6.40
2022-12-22T17:21:33.758Z,6.30
2022-12-22T17:24:04.170Z,6.30
2022-12-22T17:26:34.070Z,6.30
2022-12-22T17:29:02.692Z,6.30
2022-12-22T17:31:30.916Z,6.30
2022-12-22T17:34:00.362Z,6.30
2022-12-22T17:36:34.276Z,6.30
2022-12-22T17:39:03.083Z,6.30
2022-12-22T17:41:31.128Z,6.50
2022-12-22T17:43:59.225Z,6.70
2022-12-22T17:46:28.347Z,6.80
2022-12-22T17:48:56.573Z,6.90
2022-12-22T17:51:28.740Z,7.00
2022-12-22T17:53:58.732Z,6.90
2022-12-22T17:56:28.740Z,6.80
2022-12-22T17:58:56.880Z,6.70
2022-12-22T18:01:27.756Z,6.70
2022-12-22T18:03:56.362Z,6.60
2022-12-22T18:06:28.439Z,6.50
2022-12-22T18:08:57.761Z,6.50
2022-12-22T18:11:26.177Z,6.40
2022-12-22T18:13:57.215Z,6.20
2022-12-22T18:16:25.630Z,6.20
2022-12-22T18:18:53.784Z,6.10
2022-12-22T18:21:23.947Z,6.10
2022-12-22T18:23:53.824Z,6.00
2022-12-22T18:26:24.335Z,6.00
2022-12-22T18:28:53.062Z,6.00
2022-12-22T18:31:21.972Z,6.00
2022-12-22T18:33:50.134Z,5.90
2022-12-22T18:36:28.021Z,5.90
2022-12-22T18:38:57.891Z,5.70
2022-12-22T18:41:27.851Z,5.70
2022-12-22T18:43:55.981Z,5.60
2022-12-22T18:46:26.812Z,5.50
2022-12-22T18:49:05.332Z,5.50
2022-12-22T18:51:34.484Z,5.50
2022-12-22T18:54:20.239Z,5.30
2022-12-22T18:56:49.396Z,5.30
2022-12-22T18:59:25.325Z,5.20
2022-12-22T19:01:53.749Z,5.10
2022-12-22T19:04:22.184Z,5.10
2022-12-22T19:06:50.421Z,5.00
2022-12-22T19:09:20.340Z,4.90
2022-12-22T19:11:48.450Z,4.80
2022-12-22T19:14:18.732Z,4.80
2022-12-22T19:16:48.056Z,4.70
2022-12-22T19:19:19.538Z,4.60
2022-12-22T19:21:48.717Z,4.50
2022-12-22T19:24:16.961Z,4.40
2022-12-22T19:26:49.115Z,4.40
2022-12-22T19:29:18.395Z,4.30
2022-12-22T19:31:46.503Z,4.20
2022-12-22T19:34:19.284Z,4.20
2022-12-22T19:36:47.455Z,4.10
2022-12-22T19:39:15.511Z,4.10
2022-12-22T19:41:47.978Z,4.00
2022-12-22T19:44:20.050Z,3.90
2022-12-22T19:46:48.972Z,3.80
2022-12-22T19:49:19.402Z,3.80
2022-12-22T19:51:47.571Z,3.70
2022-12-22T19:54:16.356Z,3.70
2022-12-22T19:56:48.565Z,3.60
2022-12-22T19:59:28.110Z,3.60
2022-12-22T20:01:59.953Z,3.50
2022-12-22T20:04:28.100Z,3.50
2022-12-22T20:06:56.077Z,3.40
2022-12-22T20:09:24.143Z,3.40
2022-12-22T20:11:53.621Z,3.40
2022-12-22T20:14:21.704Z,3.30
2022-12-22T20:16:50.049Z,3.30
2022-12-22T20:19:18.027Z,3.30
2022-12-22T20:21:46.089Z,3.30
2022-12-22T20:24:22.051Z,3.30
2022-12-22T20:26:54.256Z,3.30
2022-12-22T20:29:25.655Z,3.30
2022-12-22T20:31:54.097Z,3.30
2022-12-22T20:34:22.349Z,3.30
2022-12-22T20:36:50.428Z,3.30
2022-12-22T20:39:20.494Z,3.30
2022-12-22T20:41:53.489Z,3.30
2022-12-22T20:44:28.445Z,3.30
2022-12-22T20:46:56.442Z,3.30
2022-12-22T20:49:24.469Z,3.30
2022-12-22T20:51:52.557Z,3.20
2022-12-22T20:54:20.834Z,3.20
2022-12-22T20:56:48.909Z,3.20
2022-12-22T20:59:20.356Z,3.20
2022-12-22T21:01:51.896Z,3.20
2022-12-22T21:04:21.596Z,3.20
2022-12-22T21:06:52.074Z,3.10
2022-12-22T21:09:20.159Z,3.20
2022-12-22T21:11:48.421Z,3.20
2022-12-22T21:14:16.834Z,3.10
2022-12-22T21:16:46.068Z,3.20
2022-12-22T21:19:19.939Z,3.10
2022-12-22T21:21:48.138Z,3.10
2022-12-22T21:24:16.496Z,3.20
2022-12-22T21:26:48.293Z,3.20
2022-12-22T21:29:19.902Z,3.20
2022-12-22T21:31:47.841Z,3.20
2022-12-22T21:34:15.935Z,3.20
2022-12-22T21:36:49.112Z,3.20
2022-12-22T21:39:24.677Z,3.20
2022-12-22T21:42:01.956Z,3.10
2022-12-22T21:44:31.009Z,3.20
2022-12-22T21:46:59.689Z,3.20
2022-12-22T21:49:30.563Z,3.20
2022-12-22T21:52:00.309Z,3.20
2022-12-22T21:54:28.656Z,3.20
2022-12-22T21:56:56.734Z,3.10
2022-12-22T21:59:24.904Z,3.20
2022-12-22T22:01:53.697Z,3.20
2022-12-22T22:04:22.720Z,3.10
2022-12-22T22:06:50.928Z,3.20
2022-12-22T22:09:20.509Z,3.20
2022-12-22T22:12:05.887Z,3.20
2022-12-22T22:14:33.994Z,3.10
2022-12-22T22:17:02.031Z,3.10
2022-12-22T22:19:30.061Z,3.10
2022-12-22T22:21:58.247Z,3.10
2022-12-22T22:24:27.763Z,3.10
2022-12-22T22:26:56.677Z,3.10
2022-12-22T22:29:24.707Z,3.20
2022-12-22T22:31:52.634Z,3.20
2022-12-22T22:34:20.551Z,3.20
2022-12-22T22:36:48.620Z,3.20
2022-12-22T22:39:16.782Z,3.20
2022-12-22T22:41:46.230Z,3.20
2022-12-22T22:44:14.888Z,3.30
2022-12-22T22:46:42.906Z,3.20
2022-12-22T22:49:11.207Z,3.30
2022-12-22T22:51:39.161Z,3.40
2022-12-22T22:54:07.248Z,3.30
2022-12-22T22:56:35.532Z,3.30
2022-12-22T22:59:05.199Z,3.30
2022-12-22T23:01:33.133Z,3.40
2022-12-22T23:04:01.527Z,3.40
2022-12-22T23:06:29.535Z,3.40
2022-12-22T23:08:57.651Z,3.40
2022-12-22T23:11:25.696Z,3.50
2022-12-22T23:13:55.515Z,3.50
2022-12-22T23:16:26.199Z,3.50
2022-12-22T23:18:56.131Z,3.50
2022-12-22T23:21:25.321Z,3.50
2022-12-22T23:23:56.281Z,3.50
2022-12-22T23:26:24.622Z,3.60
2022-12-22T23:28:54.549Z,3.60
2022-12-22T23:31:27.376Z,3.50
2022-12-22T23:33:57.119Z,3.70
2022-12-22T23:36:25.196Z,3.70
2022-12-22T23:38:53.337Z,3.70
2022-12-22T23:41:21.515Z,3.70
2022-12-22T23:43:50.539Z,3.80
2022-12-22T23:46:18.947Z,3.80
2022-12-22T23:48:51.508Z,3.80
2022-12-22T23:51:19.785Z,3.80
2022-12-22T23:53:47.699Z,3.90
2022-12-22T23:56:15.582Z,3.90
2022-12-22T23:58:45.442Z,3.80
